SVHD weather

Hacienda El Calvario Airport
Zulia, Venezuela

Public forecast

Using degrees Celsius for public forecast. Weather courtesy of forecast.io.

METAR (pilot weather report)

Closest report is Alfonso L√≥pez Pumarejo Airport, 52.4 nm (97.0 km) NW. Retrieved 2019/03/23 14:00 UTC (55 minutes ago):

SKVP 231400Z 08010KT 9999 FEW015 BKN100 28/20 A3001

TAF (pilot weather forecast)

Forecast is more than 12 hours old.

Closest forecast is La Chinita International Airport, 62.6 nm (116.0 km) NE. Retrieved 2019/03/17 18:03 UTC (6 days ago):

TAF SVMC 170400Z 1718/1818 09003KT 9999 SCT016 BKN100 TX30/1812Z TN25//1706Z BECMG 1712/1716 03004KT 9999 SCT016 BKN100